Time;durP1;ratioP1;P1;durP2;ratioP2;P2;SDS_P1;SDS_P2;PMS_P1;PMS_P2;Temp;Humidity;BMP_temperature;BMP_pressure;BME280_temperature;BME280_humidity;BME280_pressure;Samples;Min_cycle;Max_cycle;Signal;HPM_P1;HPM_P2
2021/05/11 00:00:01;;;;;;;9.90;3.50;;;16.20;99.40;;;;;;5064264;28;20500;-68
2021/05/11 00:02:27;;;;;;;3.43;3.13;;;16.10;99.50;;;;;;5081639;28;20432;-68
2021/05/11 00:04:54;;;;;;;5.80;3.87;;;16.20;99.50;;;;;;5082371;28;20466;-67
2021/05/11 00:07:20;;;;;;;4.23;3.00;;;16.10;99.70;;;;;;5079095;28;20758;-67
2021/05/11 00:09:47;;;;;;;4.53;4.13;;;16.10;99.70;;;;;;5077027;28;20492;-67
2021/05/11 00:12:14;;;;;;;3.37;3.07;;;16.10;99.70;;;;;;5081567;28;20853;-68
2021/05/11 00:14:40;;;;;;;3.67;3.30;;;16.00;99.90;;;;;;5081983;28;20449;-68
2021/05/11 00:17:07;;;;;;;4.90;3.63;;;15.90;99.90;;;;;;5077043;28;20441;-67
2021/05/11 00:19:35;;;;;;;3.67;3.40;;;15.90;99.90;;;;;;5055756;28;20486;-66
2021/05/11 00:22:01;;;;;;;3.77;3.20;;;15.90;99.90;;;;;;5065968;28;20470;-68
2021/05/11 00:24:28;;;;;;;4.90;3.83;;;15.90;99.90;;;;;;5078842;28;20960;-67
2021/05/11 00:26:55;;;;;;;3.47;2.97;;;15.80;99.90;;;;;;5071629;28;20484;-68
2021/05/11 00:29:21;;;;;;;3.60;3.30;;;15.80;99.90;;;;;;5069461;28;20453;-68
2021/05/11 00:31:48;;;;;;;3.80;3.40;;;15.80;99.90;;;;;;5084797;28;20445;-68
2021/05/11 00:34:14;;;;;;;3.87;3.57;;;15.90;99.70;;;;;;5058105;28;20833;-67
2021/05/11 00:36:41;;;;;;;3.20;3.00;;;15.80;99.70;;;;;;5058740;28;20623;-68
2021/05/11 00:39:07;;;;;;;3.77;3.40;;;15.80;99.80;;;;;;5059557;28;20492;-68
2021/05/11 00:41:34;;;;;;;3.93;3.50;;;15.70;99.90;;;;;;5057397;28;20441;-67
2021/05/11 00:44:01;;;;;;;4.07;3.33;;;15.70;99.80;;;;;;5058393;28;20444;-68
2021/05/11 00:46:29;;;;;;;3.03;2.83;;;15.70;99.90;;;;;;5058251;28;20454;-68
2021/05/11 00:48:56;;;;;;;3.87;3.20;;;15.70;99.80;;;;;;5058405;28;20653;-68
2021/05/11 00:51:23;;;;;;;3.87;3.47;;;15.70;99.80;;;;;;5057704;28;20640;-68
2021/05/11 00:53:49;;;;;;;3.67;3.40;;;15.70;99.80;;;;;;5058357;28;20417;-69
2021/05/11 00:56:19;;;;;;;5.20;4.73;;;15.60;99.90;;;;;;5057945;28;20414;-69
2021/05/11 00:58:46;;;;;;;3.57;3.27;;;15.60;99.90;;;;;;5057259;28;20468;-67
2021/05/11 01:01:12;;;;;;;3.63;3.23;;;15.50;99.90;;;;;;5079265;28;20628;-67
2021/05/11 01:03:39;;;;;;;4.03;3.03;;;15.50;99.90;;;;;;5075919;28;20453;-68
2021/05/11 01:06:06;;;;;;;3.37;3.03;;;15.50;99.90;;;;;;5077175;28;20487;-67
2021/05/11 01:08:33;;;;;;;3.80;3.50;;;15.60;99.80;;;;;;5071808;28;20456;-69
2021/05/11 01:10:59;;;;;;;4.10;2.63;;;15.60;99.70;;;;;;5065598;28;20436;-67
2021/05/11 01:13:26;;;;;;;3.47;3.00;;;15.60;99.70;;;;;;5075333;28;20672;-69
2021/05/11 01:15:52;;;;;;;3.17;2.70;;;15.60;99.70;;;;;;5084170;28;20441;-67
2021/05/11 01:18:27;;;;;;;4.97;3.27;;;15.50;99.90;;;;;;5078521;28;20658;-69
2021/05/11 01:21:01;;;;;;;4.73;3.87;;;15.50;99.90;;;;;;5081236;28;20730;-68
2021/05/11 01:26:06;;;;;;;3.20;2.90;;;15.40;99.90;;;;;;5066065;28;20412;-67
2021/05/11 01:50:16;;;;;;;3.30;3.00;;;15.20;99.90;;;;;;5070071;28;20470;-67
2021/05/11 01:53:02;;;;;;;4.20;3.23;;;15.10;99.90;;;;;;5064358;28;20416;-69
2021/05/11 01:58:56;;;;;;;4.40;3.30;;;14.90;99.90;;;;;;5083601;28;20781;-69
2021/05/11 02:22:47;;;;;;;6.25;4.30;;;14.90;99.90;;;;;;5078496;28;20438;-68
2021/05/11 02:25:14;;;;;;;3.40;3.03;;;14.90;99.90;;;;;;5080130;28;20700;-68
2021/05/11 02:27:42;;;;;;;3.43;3.20;;;14.90;99.90;;;;;;5089704;28;20212;-67
2021/05/11 02:30:09;;;;;;;3.78;3.47;;;15.00;99.90;;;;;;5082625;28;20510;-66
2021/05/11 02:32:40;;;;;;;4.10;3.80;;;15.20;99.90;;;;;;5083279;28;20208;-67
2021/05/11 02:35:09;;;;;;;2.92;2.75;;;14.80;99.90;;;;;;5088037;28;20464;-68
2021/05/11 02:37:36;;;;;;;3.58;3.38;;;14.90;99.90;;;;;;5087828;28;20217;-68
2021/05/11 02:40:05;;;;;;;2.80;2.60;;;14.90;99.80;;;;;;5078750;28;20300;-67
2021/05/11 02:42:31;;;;;;;4.13;2.57;;;14.90;99.90;;;;;;5077501;28;20453;-67
2021/05/11 02:44:58;;;;;;;3.00;2.80;;;15.00;99.60;;;;;;5078561;28;20942;-67
2021/05/11 02:47:25;;;;;;;3.83;2.37;;;14.90;99.60;;;;;;5077507;28;20388;-67
2021/05/11 02:49:51;;;;;;;2.97;2.78;;;14.80;99.70;;;;;;5092567;28;20435;-69
2021/05/11 02:52:18;;;;;;;3.13;2.85;;;14.90;99.60;;;;;;5081961;28;20208;-68
2021/05/11 02:54:45;;;;;;;3.33;2.80;;;14.80;99.70;;;;;;5083106;28;20216;-69
2021/05/11 02:57:11;;;;;;;2.25;2.15;;;14.90;99.10;;;;;;5079703;28;20205;-67
2021/05/11 02:59:39;;;;;;;2.37;2.27;;;15.10;98.70;;;;;;5078392;28;20228;-69
2021/05/11 03:02:07;;;;;;;3.60;3.20;;;15.10;98.80;;;;;;5078096;28;20476;-68
2021/05/11 03:04:34;;;;;;;2.73;2.40;;;15.00;98.80;;;;;;5087507;28;20244;-68
2021/05/11 03:07:01;;;;;;;3.65;3.28;;;15.10;98.70;;;;;;5078156;28;20444;-68
2021/05/11 03:09:28;;;;;;;2.57;2.37;;;15.10;98.40;;;;;;5090962;28;20212;-68
2021/05/11 03:11:55;;;;;;;3.70;2.63;;;15.20;98.40;;;;;;5078196;28;20492;-69
2021/05/11 03:14:22;;;;;;;3.47;3.15;;;15.10;98.40;;;;;;5077056;28;20448;-68
2021/05/11 03:16:51;;;;;;;2.77;2.57;;;15.00;98.60;;;;;;5071626;28;20208;-68
2021/05/11 03:19:19;;;;;;;2.58;2.33;;;15.10;98.50;;;;;;5074832;28;20864;-68
2021/05/11 03:21:46;;;;;;;2.37;2.27;;;15.20;98.20;;;;;;5071036;28;20247;-68
2021/05/11 03:24:14;;;;;;;3.20;3.00;;;15.10;98.30;;;;;;5083005;28;20438;-67
2021/05/11 03:26:41;;;;;;;2.55;2.30;;;15.20;98.30;;;;;;5081818;28;20447;-68
2021/05/11 03:29:08;;;;;;;2.60;2.40;;;15.10;98.20;;;;;;5076731;28;20221;-70
2021/05/11 03:31:34;;;;;;;4.70;3.27;;;15.20;98.10;;;;;;5069300;28;20507;-67
2021/05/11 03:34:01;;;;;;;3.10;2.90;;;15.20;97.90;;;;;;5073365;28;20836;-69
2021/05/11 03:36:28;;;;;;;2.95;2.72;;;15.20;97.90;;;;;;5074372;28;20459;-68
2021/05/11 03:38:55;;;;;;;3.17;2.88;;;15.20;98.00;;;;;;5068733;28;20451;-67
2021/05/11 03:41:26;;;;;;;2.97;2.60;;;15.20;97.70;;;;;;5066092;28;20269;-68
2021/05/11 03:44:14;;;;;;;2.78;2.58;;;15.30;97.80;;;;;;5069508;28;20208;-68
2021/05/11 03:46:42;;;;;;;3.00;2.70;;;15.30;97.50;;;;;;5069414;28;20218;-67
2021/05/11 03:49:11;;;;;;;4.10;2.83;;;15.50;97.20;;;;;;5069012;28;20604;-67
2021/05/11 03:51:39;;;;;;;3.80;3.40;;;15.40;97.40;;;;;;5071984;28;20542;-67
2021/05/11 03:54:07;;;;;;;2.30;2.20;;;15.50;97.10;;;;;;5065675;28;20210;-70
2021/05/11 03:56:34;;;;;;;4.70;4.30;;;15.50;96.80;;;;;;5069775;28;20445;-69
2021/05/11 03:59:05;;;;;;;5.90;3.20;;;15.60;96.70;;;;;;5072001;28;20265;-68
2021/05/11 04:01:33;;;;;;;6.00;3.50;;;15.60;96.60;;;;;;5069532;28;20462;-68
2021/05/11 04:04:00;;;;;;;3.07;2.87;;;15.70;96.60;;;;;;5075548;28;20437;-68
2021/05/11 04:06:28;;;;;;;3.77;3.47;;;15.80;96.10;;;;;;5071375;28;20435;-68
2021/05/11 04:09:11;;;;;;;4.50;3.90;;;15.90;95.90;;;;;;5070560;28;20432;-67
2021/05/11 04:17:03;;;;;;;4.33;3.27;;;16.10;95.50;;;;;;5062835;28;20481;-67
2021/05/11 04:19:30;;;;;;;4.43;3.33;;;16.20;95.40;;;;;;5070426;28;20488;-68
2021/05/11 04:21:57;;;;;;;3.50;3.00;;;16.30;95.30;;;;;;5070664;28;20743;-68
2021/05/11 04:24:26;;;;;;;3.27;2.90;;;16.40;94.80;;;;;;5073904;28;20788;-67
2021/05/11 04:26:53;;;;;;;3.53;3.30;;;16.60;94.70;;;;;;5082509;28;20444;-68
2021/05/11 04:29:20;;;;;;;3.87;3.60;;;16.60;94.50;;;;;;5074825;28;20424;-67
2021/05/11 04:31:47;;;;;;;4.33;3.17;;;16.70;94.20;;;;;;5069995;28;20448;-67
2021/05/11 04:34:14;;;;;;;3.57;3.27;;;16.70;94.10;;;;;;5074946;28;20418;-68
2021/05/11 04:36:42;;;;;;;4.27;3.90;;;16.80;94.30;;;;;;5073308;28;20782;-68
2021/05/11 04:39:09;;;;;;;4.00;3.70;;;17.00;93.80;;;;;;5072000;28;20667;-70
2021/05/11 04:41:36;;;;;;;4.27;3.97;;;17.00;93.60;;;;;;5061466;28;20466;-68
2021/05/11 04:44:04;;;;;;;3.80;3.50;;;17.20;93.60;;;;;;5058064;28;20497;-69
2021/05/11 04:49:30;;;;;;;5.53;3.47;;;17.50;92.80;;;;;;5041782;28;20445;-67
2021/05/11 04:51:58;;;;;;;4.00;3.70;;;17.50;92.80;;;;;;5070545;28;20425;-68
2021/05/11 04:54:25;;;;;;;4.43;3.77;;;17.60;92.60;;;;;;5067332;28;20437;-67
2021/05/11 04:56:53;;;;;;;4.27;4.00;;;17.60;92.50;;;;;;5074149;28;20419;-69
2021/05/11 04:59:20;;;;;;;5.40;4.20;;;17.60;92.50;;;;;;5065979;28;20622;-67
2021/05/11 05:01:49;;;;;;;4.80;4.33;;;17.60;92.70;;;;;;5053142;28;20439;-69
2021/05/11 05:04:17;;;;;;;4.43;4.13;;;17.80;92.40;;;;;;5062034;28;20470;-68
2021/05/11 05:06:44;;;;;;;4.30;4.00;;;17.90;92.30;;;;;;5079969;28;20472;-67
2021/05/11 05:09:12;;;;;;;5.63;4.53;;;18.00;91.70;;;;;;5080020;28;20418;-69
2021/05/11 05:11:40;;;;;;;4.83;4.43;;;18.20;91.70;;;;;;5093110;28;20414;-69
2021/05/11 05:14:08;;;;;;;5.03;4.63;;;18.30;91.50;;;;;;5080231;28;20747;-69
2021/05/11 05:16:36;;;;;;;6.20;4.60;;;18.30;91.60;;;;;;5076288;28;20471;-70
2021/05/11 05:19:04;;;;;;;4.70;4.40;;;18.50;91.50;;;;;;5077719;28;20502;-69
2021/05/11 05:21:32;;;;;;;5.83;5.03;;;18.60;91.10;;;;;;5072543;28;20446;-68
2021/05/11 05:24:05;;;;;;;4.37;4.07;;;18.60;90.90;;;;;;5077217;28;20732;-69
2021/05/11 05:26:33;;;;;;;5.53;5.10;;;18.70;91.00;;;;;;5082382;28;20449;-69
2021/05/11 05:29:02;;;;;;;6.33;4.87;;;18.80;91.00;;;;;;5080902;28;20462;-68
2021/05/11 05:31:39;;;;;;;4.93;4.60;;;19.00;90.40;;;;;;5069798;28;20414;-68
2021/05/11 05:34:10;;;;;;;4.97;4.53;;;19.10;90.50;;;;;;5066573;28;20535;-67
2021/05/11 05:36:38;;;;;;;4.57;4.27;;;19.50;90.10;;;;;;5078225;28;20446;-68
2021/05/11 05:39:05;;;;;;;6.37;5.80;;;19.70;89.40;;;;;;5080019;28;20475;-68
2021/05/11 05:41:34;;;;;;;5.17;4.83;;;19.80;89.40;;;;;;5085005;28;20821;-68
2021/05/11 05:44:02;;;;;;;6.00;5.50;;;19.90;88.60;;;;;;5070795;28;20691;-67
2021/05/11 05:46:29;;;;;;;11.07;5.17;;;19.90;88.80;;;;;;5074342;28;20420;-66
2021/05/11 05:48:59;;;;;;;4.83;4.63;;;19.90;88.30;;;;;;5066703;28;20426;-67
2021/05/11 05:51:27;;;;;;;4.87;4.30;;;20.00;87.80;;;;;;5074830;28;20422;-67
2021/05/11 05:53:54;;;;;;;5.00;4.77;;;20.30;86.40;;;;;;5072407;28;20440;-68
2021/05/11 05:56:21;;;;;;;5.70;5.40;;;20.50;86.70;;;;;;5075294;28;20759;-68
2021/05/11 05:58:48;;;;;;;5.10;4.70;;;20.60;86.10;;;;;;5065915;28;20447;-69
2021/05/11 06:01:16;;;;;;;5.93;5.53;;;21.00;84.70;;;;;;5081422;28;20502;-69
2021/05/11 06:06:12;;;;;;;6.30;5.90;;;21.50;83.50;;;;;;5081257;28;20451;-67
2021/05/11 06:08:41;;;;;;;5.80;5.47;;;21.80;81.70;;;;;;5068276;28;20444;-68
2021/05/11 06:14:40;;;;;;;6.37;5.97;;;22.70;77.00;;;;;;5077925;28;20483;-67
2021/05/11 06:19:19;;;;;;;6.30;5.87;;;23.30;73.80;;;;;;5076742;28;20434;-68
2021/05/11 06:21:47;;;;;;;6.30;6.00;;;23.70;72.10;;;;;;5073614;28;20506;-69
2021/05/11 06:24:14;;;;;;;6.40;6.00;;;24.00;70.50;;;;;;5084651;28;20574;-67
2021/05/11 06:26:43;;;;;;;6.60;6.20;;;24.60;68.60;;;;;;5073514;28;20420;-67
2021/05/11 06:29:14;;;;;;;6.80;6.30;;;25.00;66.90;;;;;;5083354;28;20468;-67
2021/05/11 06:31:41;;;;;;;6.47;6.13;;;25.40;65.20;;;;;;5075412;28;20447;-67
2021/05/11 06:34:10;;;;;;;6.70;6.40;;;26.20;62.60;;;;;;5076132;28;20744;-68
2021/05/11 06:36:38;;;;;;;7.00;6.50;;;27.00;59.00;;;;;;5075263;28;20802;-67
2021/05/11 06:39:11;;;;;;;7.13;6.63;;;27.00;57.80;;;;;;5069886;28;20498;-68
2021/05/11 06:41:40;;;;;;;7.30;6.90;;;28.10;56.10;;;;;;5071266;28;20483;-68
2021/05/11 06:44:12;;;;;;;7.47;7.17;;;28.80;52.90;;;;;;5071545;28;20496;-67
2021/05/11 06:54:15;;;;;;;7.47;7.17;;;29.80;47.70;;;;;;5075790;28;20833;-68
2021/05/11 06:56:46;;;;;;;7.90;7.50;;;29.90;47.40;;;;;;5077394;28;20461;-68
2021/05/11 06:59:14;;;;;;;7.67;7.27;;;30.20;46.90;;;;;;5084225;28;20685;-69
2021/05/11 07:01:41;;;;;;;7.80;7.23;;;30.10;46.30;;;;;;5079507;28;20508;-68
2021/05/11 07:04:09;;;;;;;9.37;8.53;;;30.60;46.20;;;;;;5083902;28;20463;-69
2021/05/11 07:06:38;;;;;;;8.60;7.73;;;32.50;43.80;;;;;;5073235;28;20624;-70
2021/05/11 07:09:09;;;;;;;8.53;8.13;;;32.20;42.40;;;;;;5068287;28;20451;-67
2021/05/11 07:14:05;;;;;;;8.60;8.20;;;33.20;40.60;;;;;;5070060;28;20443;-65
2021/05/11 07:16:33;;;;;;;8.27;7.70;;;31.60;42.40;;;;;;5075260;28;20686;-68
2021/05/11 07:19:00;;;;;;;8.47;8.07;;;31.90;43.40;;;;;;5081117;28;20442;-68
2021/05/11 07:21:27;;;;;;;8.37;8.07;;;32.10;42.50;;;;;;5082413;28;20482;-68
2021/05/11 07:23:56;;;;;;;9.73;8.90;;;33.10;41.50;;;;;;5090147;28;20445;-69
2021/05/11 07:26:27;;;;;;;8.63;8.13;;;33.30;40.30;;;;;;5088376;28;20583;-69
2021/05/11 07:31:39;;;;;;;7.90;7.50;;;32.70;41.80;;;;;;5086662;28;20454;-68
2021/05/11 07:34:08;;;;;;;9.10;8.63;;;32.90;40.90;;;;;;5087018;28;20446;-68
2021/05/11 07:36:35;;;;;;;8.20;7.80;;;32.50;41.40;;;;;;5072673;28;20534;-69
2021/05/11 07:39:03;;;;;;;7.97;7.67;;;33.40;40.60;;;;;;5075680;28;20584;-69
2021/05/11 07:41:30;;;;;;;7.73;7.43;;;33.80;40.70;;;;;;5078488;28;20487;-70
2021/05/11 07:43:58;;;;;;;8.53;8.13;;;33.80;40.60;;;;;;5067656;28;20465;-67
2021/05/11 07:46:41;;;;;;;7.60;7.30;;;34.70;40.20;;;;;;5072661;28;20475;-70
2021/05/11 08:15:29;;;;;;;8.40;8.10;;;35.20;36.40;;;;;;5081188;28;20753;-70
2021/05/11 08:28:44;;;;;;;8.00;7.70;;;34.50;37.60;;;;;;5067723;28;20433;-68
2021/05/11 08:31:11;;;;;;;8.93;8.43;;;34.70;37.90;;;;;;5063846;28;20459;-68
2021/05/11 08:33:38;;;;;;;8.67;8.27;;;35.30;36.90;;;;;;5071268;28;20623;-72
2021/05/11 08:36:06;;;;;;;8.30;7.90;;;35.00;36.20;;;;;;5065874;28;20473;-68
2021/05/11 08:38:33;;;;;;;10.80;10.33;;;35.60;36.10;;;;;;5059346;28;20490;-69
2021/05/11 08:41:01;;;;;;;8.30;7.90;;;37.30;34.30;;;;;;5069256;28;20479;-68
2021/05/11 08:43:30;;;;;;;8.60;8.30;;;36.90;34.80;;;;;;5062812;28;20440;-69
2021/05/11 08:46:06;;;;;;;11.30;10.17;;;37.10;34.30;;;;;;5076739;28;20432;-69
2021/05/11 08:48:36;;;;;;;9.50;9.10;;;37.20;34.20;;;;;;5077089;28;20471;-68
2021/05/11 08:54:11;;;;;;;9.80;9.20;;;39.90;30.70;;;;;;5083473;28;20498;-67
2021/05/11 09:32:46;;;;;;;8.03;7.73;;;31.50;39.40;;;;;;5085857;28;20449;-71
2021/05/11 09:57:20;;;;;;;6.90;6.60;;;28.80;44.00;;;;;;5089547;28;20776;-70
2021/05/11 10:48:27;;;;;;;6.10;5.90;;;29.50;33.90;;;;;;5071367;28;20435;-70
2021/05/11 10:50:57;;;;;;;5.87;5.67;;;29.50;32.70;;;;;;5075015;28;20508;-71
2021/05/11 10:53:41;;;;;;;5.80;5.53;;;29.50;32.70;;;;;;5077847;28;20439;-68
2021/05/11 10:56:30;;;;;;;5.97;5.77;;;29.40;32.70;;;;;;5073816;28;20947;-72
2021/05/11 10:59:12;;;;;;;5.87;5.67;;;29.40;32.60;;;;;;5070652;28;20444;-72
2021/05/11 11:01:43;;;;;;;6.70;6.17;;;29.40;32.30;;;;;;5083448;28;20484;-71
2021/05/11 11:04:22;;;;;;;7.27;6.97;;;29.40;33.00;;;;;;5087065;28;20468;-70
2021/05/11 11:06:58;;;;;;;6.90;6.60;;;29.60;33.30;;;;;;5084632;28;20511;-73
2021/05/11 11:09:29;;;;;;;6.27;5.97;;;29.80;32.10;;;;;;5081862;28;20659;-69
2021/05/11 11:11:58;;;;;;;5.80;5.60;;;29.60;32.50;;;;;;5076192;28;20770;-69
2021/05/11 11:14:33;;;;;;;5.80;5.60;;;29.50;32.20;;;;;;5074531;28;20441;-68
2021/05/11 11:17:03;;;;;;;6.00;5.80;;;29.60;32.20;;;;;;5073623;28;20656;-70
2021/05/11 11:19:31;;;;;;;6.37;6.17;;;29.70;33.30;;;;;;5084712;28;20418;-70
2021/05/11 11:23:32;;;;;;;5.80;5.60;;;29.90;32.90;;;;;;5073170;28;20483;-70
2021/05/11 11:24:52;;;;;;;6.00;5.80;;;30.00;31.30;;;;;;5072568;28;20447;-69
2021/05/11 11:27:26;;;;;;;6.57;6.30;;;29.90;33.00;;;;;;5082242;28;20448;-68
2021/05/11 11:30:12;;;;;;;6.60;6.30;;;29.90;33.60;;;;;;5066702;28;20480;-71
2021/05/11 11:32:39;;;;;;;6.50;6.30;;;30.00;31.90;;;;;;5065931;28;20445;-67
2021/05/11 11:35:09;;;;;;;6.57;6.33;;;30.00;33.80;;;;;;5071331;28;20441;-70
2021/05/11 11:37:36;;;;;;;6.93;6.60;;;30.00;32.30;;;;;;5071679;28;20471;-69
2021/05/11 11:40:07;;;;;;;6.00;5.80;;;30.00;34.60;;;;;;5066776;28;20450;-69
2021/05/11 11:42:40;;;;;;;6.00;5.80;;;30.10;33.10;;;;;;5072075;28;20475;-71
2021/05/11 11:45:24;;;;;;;6.30;6.10;;;30.00;33.20;;;;;;5079320;28;20626;-73
2021/05/11 11:48:00;;;;;;;6.20;5.90;;;30.00;32.60;;;;;;5095254;28;20456;-69
2021/05/11 11:50:31;;;;;;;5.73;5.53;;;29.90;34.00;;;;;;5078820;28;20862;-69
2021/05/11 11:53:06;;;;;;;6.70;6.40;;;30.00;32.70;;;;;;5085895;28;20449;-69
2021/05/11 11:58:28;;;;;;;5.90;5.70;;;29.90;33.30;;;;;;5090863;28;20465;-71
2021/05/11 12:00:55;;;;;;;6.00;5.80;;;30.00;35.50;;;;;;5074948;28;20500;-72
2021/05/11 12:03:23;;;;;;;6.47;6.27;;;30.00;36.10;;;;;;5080405;28;20553;-71
2021/05/11 12:05:52;;;;;;;5.87;5.67;;;30.00;36.60;;;;;;5065422;28;20454;-71
2021/05/11 12:08:24;;;;;;;6.07;5.80;;;30.00;35.30;;;;;;5061603;28;20495;-71
2021/05/11 12:11:08;;;;;;;5.60;5.40;;;30.00;36.20;;;;;;5067837;28;20444;-71
2021/05/11 12:13:40;;;;;;;6.07;5.87;;;29.90;35.60;;;;;;5058872;28;20477;-71
2021/05/11 12:16:23;;;;;;;5.97;5.77;;;29.80;34.60;;;;;;5074704;28;20452;-70
2021/05/11 12:19:07;;;;;;;5.87;5.67;;;29.50;35.00;;;;;;5080260;28;20782;-69
2021/05/11 12:21:55;;;;;;;6.00;5.80;;;29.80;36.60;;;;;;5076103;28;20473;-68
2021/05/11 12:24:34;;;;;;;6.20;5.90;;;29.90;35.60;;;;;;5077501;28;20443;-71
2021/05/11 12:27:22;;;;;;;5.67;5.47;;;29.90;35.40;;;;;;5060101;28;20775;-70
2021/05/11 12:30:06;;;;;;;6.87;6.57;;;29.90;34.90;;;;;;5072197;28;20436;-68
2021/05/11 12:32:35;;;;;;;6.10;5.90;;;29.90;35.40;;;;;;5070134;28;20451;-69
2021/05/11 12:35:15;;;;;;;6.50;6.20;;;29.90;35.50;;;;;;5073821;28;20872;-68
2021/05/11 12:37:52;;;;;;;6.30;6.10;;;30.00;35.40;;;;;;5074501;28;20475;-69
2021/05/11 12:40:28;;;;;;;5.70;5.50;;;30.00;35.00;;;;;;5074319;28;20436;-68
2021/05/11 12:42:57;;;;;;;6.80;6.23;;;30.00;34.30;;;;;;5074231;28;20470;-72
2021/05/11 12:45:26;;;;;;;6.27;6.07;;;29.80;34.30;;;;;;5081268;28;20442;-70
2021/05/11 12:48:00;;;;;;;6.50;6.20;;;29.70;34.40;;;;;;5072699;28;20482;-70
2021/05/11 12:50:34;;;;;;;6.50;6.20;;;29.80;34.70;;;;;;5079701;28;20882;-72
2021/05/11 12:53:41;;;;;;;6.30;6.10;;;29.80;34.80;;;;;;5080212;28;20508;-68
2021/05/11 12:56:30;;;;;;;6.77;6.57;;;29.90;35.10;;;;;;5057235;28;20508;-68
2021/05/11 12:59:04;;;;;;;6.50;6.30;;;29.90;34.80;;;;;;5061124;28;20617;-69
2021/05/11 13:01:46;;;;;;;6.63;6.43;;;29.80;34.50;;;;;;5069782;28;20538;-70
2021/05/11 13:05:09;;;;;;;6.67;6.27;;;29.80;34.50;;;;;;5080421;28;20456;-69
2021/05/11 13:16:09;;;;;;;6.80;6.17;;;29.90;36.70;;;;;;5064427;28;20444;-70
2021/05/11 13:21:33;;;;;;;5.83;5.63;;;29.80;36.70;;;;;;5074277;28;20678;-68
2021/05/11 13:26:51;;;;;;;6.63;6.33;;;29.60;36.90;;;;;;5075086;28;20440;-69
2021/05/11 13:32:25;;;;;;;6.40;6.20;;;29.70;36.30;;;;;;5055344;28;20442;-69
2021/05/11 13:34:52;;;;;;;6.33;6.10;;;29.60;36.60;;;;;;5072653;28;20438;-70
2021/05/11 13:37:26;;;;;;;6.27;6.07;;;29.70;36.70;;;;;;5071407;28;20415;-70
2021/05/11 13:39:54;;;;;;;7.47;6.97;;;29.80;37.10;;;;;;5072267;28;20534;-70
2021/05/11 13:42:22;;;;;;;6.30;6.10;;;29.80;37.00;;;;;;5071164;28;20466;-69
2021/05/11 13:44:50;;;;;;;7.00;6.53;;;29.80;36.30;;;;;;5072764;28;20778;-69
2021/05/11 13:47:17;;;;;;;6.50;6.20;;;29.90;35.90;;;;;;5071696;28;20665;-69
2021/05/11 13:49:56;;;;;;;6.10;5.80;;;29.90;35.20;;;;;;5070123;28;20815;-69
2021/05/11 13:52:33;;;;;;;6.17;5.97;;;29.80;35.50;;;;;;5073400;28;20466;-69
2021/05/11 13:55:16;;;;;;;5.60;5.40;;;29.80;36.30;;;;;;5072270;28;20433;-73
2021/05/11 14:03:18;;;;;;;6.23;6.03;;;29.60;37.70;;;;;;5068533;28;20491;-69
2021/05/11 14:05:46;;;;;;;5.60;5.40;;;29.60;38.70;;;;;;5070722;28;20630;-69
2021/05/11 14:08:17;;;;;;;6.00;5.77;;;29.70;36.10;;;;;;5070432;28;20445;-71
2021/05/11 14:10:54;;;;;;;6.00;5.80;;;29.70;36.90;;;;;;5071475;28;20447;-69
2021/05/11 14:13:30;;;;;;;6.30;5.97;;;29.70;36.20;;;;;;5069806;28;20499;-68
2021/05/11 14:16:05;;;;;;;5.90;5.70;;;29.70;35.80;;;;;;5070465;28;20454;-70
2021/05/11 14:18:37;;;;;;;6.03;5.83;;;29.60;35.70;;;;;;5071690;28;20467;-72
2021/05/11 14:21:06;;;;;;;6.20;6.00;;;29.60;36.80;;;;;;5071350;28;20519;-68
2021/05/11 14:23:33;;;;;;;6.10;5.70;;;29.60;36.10;;;;;;5070773;28;20629;-68
2021/05/11 14:26:01;;;;;;;6.40;6.10;;;29.50;36.20;;;;;;5071265;28;20936;-73
2021/05/11 14:28:28;;;;;;;6.10;5.90;;;29.50;35.70;;;;;;5071186;28;20436;-68
2021/05/11 14:30:55;;;;;;;6.40;6.10;;;29.60;35.60;;;;;;5070717;28;20776;-69
2021/05/11 14:33:23;;;;;;;6.50;6.10;;;29.60;35.60;;;;;;5069270;28;20537;-68
2021/05/11 14:35:50;;;;;;;6.30;6.10;;;29.50;36.60;;;;;;5071486;28;20824;-71
2021/05/11 14:38:17;;;;;;;6.40;6.20;;;29.40;37.10;;;;;;5069781;28;20457;-71
2021/05/11 14:40:45;;;;;;;6.43;6.20;;;29.40;36.90;;;;;;5070241;28;20500;-69
2021/05/11 14:43:12;;;;;;;6.90;6.40;;;29.50;37.60;;;;;;5068769;28;20485;-68
2021/05/11 14:45:39;;;;;;;6.63;6.30;;;29.50;36.60;;;;;;5070114;28;20447;-71
2021/05/11 14:48:07;;;;;;;6.73;6.43;;;29.40;36.30;;;;;;5070756;28;20415;-70
2021/05/11 14:50:35;;;;;;;6.23;6.00;;;29.40;36.30;;;;;;5069086;28;20440;-70
2021/05/11 14:53:02;;;;;;;5.97;5.77;;;29.30;36.40;;;;;;5070034;28;20564;-70
2021/05/11 14:55:29;;;;;;;6.93;6.63;;;29.30;36.30;;;;;;5069380;28;20450;-70
2021/05/11 14:57:56;;;;;;;6.10;5.90;;;29.20;36.40;;;;;;5070846;28;20440;-71
2021/05/11 15:00:25;;;;;;;7.20;6.80;;;29.20;37.10;;;;;;5069586;28;20444;-71
2021/05/11 15:02:52;;;;;;;6.60;6.30;;;29.20;37.30;;;;;;5070241;28;20458;-69
2021/05/11 15:05:20;;;;;;;6.17;5.97;;;29.20;37.90;;;;;;5068202;28;20657;-68
2021/05/11 15:07:50;;;;;;;6.80;6.50;;;29.20;38.40;;;;;;5069603;28;20922;-67
2021/05/11 15:10:17;;;;;;;7.60;7.20;;;29.30;37.60;;;;;;5070284;28;21033;-70
2021/05/11 15:12:45;;;;;;;5.77;5.57;;;29.20;38.20;;;;;;5068752;28;20511;-69
2021/05/11 15:15:18;;;;;;;6.07;5.87;;;29.00;37.80;;;;;;5070144;28;20533;-70
2021/05/11 15:20:14;;;;;;;6.20;6.00;;;29.10;38.40;;;;;;5068213;28;20444;-69
2021/05/11 15:23:02;;;;;;;6.57;6.27;;;29.20;37.70;;;;;;5067342;28;20472;-70
2021/05/11 15:25:30;;;;;;;6.87;6.60;;;29.10;38.50;;;;;;5069389;28;20446;-68
2021/05/11 15:27:59;;;;;;;6.40;6.20;;;28.90;38.90;;;;;;5070088;28;20791;-71
2021/05/11 15:30:28;;;;;;;7.07;6.77;;;29.00;38.70;;;;;;5066859;28;20769;-68
2021/05/11 15:32:57;;;;;;;6.77;6.47;;;29.00;38.70;;;;;;5069718;28;20443;-69
2021/05/11 15:35:33;;;;;;;7.03;6.63;;;29.00;39.00;;;;;;5067303;28;20845;-69
2021/05/11 15:38:03;;;;;;;7.40;7.00;;;29.00;39.10;;;;;;5070356;28;20451;-70
2021/05/11 15:40:33;;;;;;;7.70;7.40;;;28.90;39.20;;;;;;5067416;28;20877;-69
2021/05/11 15:43:01;;;;;;;7.13;6.77;;;28.90;39.60;;;;;;5085787;28;20472;-69
2021/05/11 15:45:28;;;;;;;7.13;6.83;;;28.80;39.50;;;;;;5069117;28;20657;-69
2021/05/11 15:47:56;;;;;;;7.17;6.87;;;28.80;40.00;;;;;;5068940;28;20796;-69
2021/05/11 15:50:26;;;;;;;7.10;6.80;;;28.90;40.50;;;;;;5066426;28;20511;-69
2021/05/11 15:52:56;;;;;;;6.67;6.30;;;28.80;40.70;;;;;;5070475;28;20446;-72
2021/05/11 15:55:23;;;;;;;6.67;6.37;;;28.70;40.40;;;;;;5059558;28;20776;-69
2021/05/11 15:57:51;;;;;;;6.73;6.43;;;28.60;40.60;;;;;;5070848;28;20451;-71
2021/05/11 16:00:19;;;;;;;6.87;6.57;;;28.50;41.40;;;;;;5068130;28;20439;-69
2021/05/11 16:02:49;;;;;;;7.03;6.73;;;28.30;41.60;;;;;;5067722;28;20503;-70
2021/05/11 16:05:20;;;;;;;7.50;7.00;;;28.10;42.10;;;;;;5064913;28;20477;-69
2021/05/11 16:07:48;;;;;;;7.73;7.33;;;27.90;42.50;;;;;;5068463;28;20783;-70
2021/05/11 16:10:16;;;;;;;7.43;7.03;;;27.80;42.90;;;;;;5066450;28;20460;-73
2021/05/11 16:12:44;;;;;;;6.90;6.60;;;27.80;42.90;;;;;;5068667;28;20533;-71
2021/05/11 16:15:13;;;;;;;7.10;6.80;;;27.80;43.00;;;;;;5068585;28;20443;-72
2021/05/11 16:17:42;;;;;;;7.33;6.93;;;27.50;43.20;;;;;;5068107;28;20769;-70
2021/05/11 16:20:11;;;;;;;7.47;7.17;;;27.30;43.30;;;;;;5065799;28;21036;-69
2021/05/11 16:22:39;;;;;;;7.03;6.73;;;27.20;43.40;;;;;;5068401;28;20663;-70
2021/05/11 16:25:08;;;;;;;7.30;6.90;;;27.10;44.30;;;;;;5069094;28;20461;-71
2021/05/11 16:27:38;;;;;;;6.97;6.57;;;27.00;44.50;;;;;;5066974;28;20451;-71
2021/05/11 16:30:14;;;;;;;6.80;6.50;;;26.90;44.50;;;;;;5067442;28;20599;-71
2021/05/11 16:32:41;;;;;;;7.30;7.00;;;26.70;45.40;;;;;;5068096;28;20763;-70
2021/05/11 16:35:09;;;;;;;7.30;7.00;;;26.50;46.10;;;;;;5066430;28;20726;-70
2021/05/11 16:37:37;;;;;;;6.97;6.67;;;26.50;46.20;;;;;;5065664;28;20666;-71
2021/05/11 16:40:06;;;;;;;6.50;6.30;;;26.50;46.60;;;;;;5067586;28;20710;-71
2021/05/11 16:42:35;;;;;;;7.00;6.70;;;26.40;47.40;;;;;;5068135;28;20438;-70
2021/05/11 16:45:09;;;;;;;8.53;7.70;;;26.30;47.60;;;;;;5066931;28;20453;-71
2021/05/11 16:47:36;;;;;;;7.03;6.67;;;26.30;47.70;;;;;;5067451;28;20486;-72
2021/05/11 16:50:04;;;;;;;7.87;7.27;;;26.30;47.60;;;;;;5066952;28;20462;-70
2021/05/11 16:52:32;;;;;;;6.83;6.33;;;26.20;47.90;;;;;;5069043;28;20665;-70
2021/05/11 16:54:59;;;;;;;6.57;6.27;;;26.20;48.10;;;;;;5067617;28;20727;-70
2021/05/11 16:57:26;;;;;;;6.73;6.23;;;26.00;48.90;;;;;;5065476;28;20448;-71
2021/05/11 16:59:53;;;;;;;6.73;6.50;;;25.90;49.00;;;;;;5068482;28;20747;-73
2021/05/11 17:02:20;;;;;;;6.60;6.20;;;25.80;48.70;;;;;;5067312;28;20557;-71
2021/05/11 17:04:47;;;;;;;5.97;5.67;;;25.80;48.60;;;;;;5064010;28;20501;-71
2021/05/11 17:07:14;;;;;;;6.83;6.53;;;25.70;49.30;;;;;;5066589;28;21117;-71
2021/05/11 17:09:41;;;;;;;6.90;6.40;;;25.60;49.20;;;;;;5066417;28;20431;-71
2021/05/11 17:12:09;;;;;;;5.97;5.70;;;25.50;49.60;;;;;;5065481;28;20491;-72